Flight Track Log - Related Links

Times and Time Zones

All times are in EDT time to prevent confusion due to time zone crossing. See the AAL461 flight status page for this flight to view local times or setup timezone preferences in your user account.

Time Position Orientation Groundspeed Altitude Reporting Facility
EDT Latitude Longitude Course Direction KTS MPH feet Rate Location/Type
Tue 11:47:53 PM 32.9167 -97.0333 101° East 139 160 2,300  Level Dallas / Fort Worth TRACON
Tue 11:48:59 PM 32.9667 -97.0167 16° North 226 260 4,900 2,500 Climbing Dallas / Fort Worth TRACON
Tue 11:49:53 PM 33.0333 -96.9667 32° Northeast 311 358 7,300 2,368 Climbing Dallas / Fort Worth TRACON
Tue 11:50:00 PM 32.6886 -96.7555 77° East  Level FlightAware Approximate
Tue 11:50:53 PM 33.0000 -96.8667 112° Southeast 295 339 9,400  Level Dallas / Fort Worth TRACON
Tue 11:51:00 PM 32.7181 -96.5985 77° East  Level FlightAware Approximate
Tue 11:51:53 PM 32.9667 -96.7833 115° Southeast 314 361 11,100  Level Dallas / Fort Worth TRACON
Tue 11:52:00 PM 32.7398 -96.4399 84° East  Level FlightAware Approximate
Tue 11:53:00 PM 32.7467 -96.2799 101° East  Level FlightAware Approximate
Tue 11:53:50 PM 32.8756 -96.5878 119° Southeast 350 403 15,500  Level Houston Center
Tue 11:54:19 PM 32.8469 -96.5281 120° Southeast 383 441 16,900 2,697 Climbing Fort Worth Center
Tue 11:55:19 PM 32.7939 -96.4100 118° Southeast 396 456 19,500 2,500 Climbing Fort Worth Center
Tue 11:56:19 PM 32.7511 -96.2772 111° Southeast 418 481 21,900 2,200 Climbing Fort Worth Center
Tue 11:57:19 PM 32.7308 -96.1417 100° East 445 512 23,900 2,100 Climbing Fort Worth Center
Tue 11:58:19 PM 32.7083 -95.9889 100° East 471 542 26,100 2,050 Climbing Fort Worth Center
Tue 11:59:19 PM 32.6772 -95.8167 102° East 476 548 28,000 1,800 Climbing Fort Worth Center
Wed 12:00:19 AM 32.6561 -95.6517 99° East 491 565 29,700 1,950 Climbing Fort Worth Center
Wed 12:01:19 AM 32.6642 -95.4861 87° East 496 571 31,900 1,650 Climbing Fort Worth Center
Wed 12:02:19 AM 32.6803 -95.3228 83° East 496 571 33,000 550 Climbing Fort Worth Center
Wed 12:03:19 AM 32.6861 -95.1697 87° East 501 577 33,000  Level Fort Worth Center
Wed 12:04:19 AM 32.6975 -94.9992 85° East 506 582 33,000  Level Fort Worth Center
Wed 12:05:19 AM 32.7089 -94.8308 85° East 506 582 33,000  Level Fort Worth Center
Wed 12:06:19 AM 32.6700 -94.6742 106° East 491 565 33,000  Level Fort Worth Center
Wed 12:07:19 AM 32.6164 -94.5153 112° Southeast 497 572 33,000 400 Level Fort Worth Center
Wed 12:08:19 AM 32.5647 -94.3642 112° Southeast 497 572 33,800 908 Climbing Fort Worth Center
Wed 12:09:18 AM 32.5108 -94.2108 113° Southeast 502 578 34,800 600 Climbing Fort Worth Center
Wed 12:10:19 AM 32.4589 -94.0553 112° Southeast 502 578 35,000 99 Climbing Fort Worth Center
Wed 12:11:19 AM 32.4044 -93.8997 112° Southeast 502 578 35,000  Level Fort Worth Center
Wed 12:12:19 AM 32.3519 -93.7444 112° Southeast 507 583 35,000  Level Fort Worth Center
Wed 12:13:19 AM 32.2994 -93.5917 112° Southeast 507 583 35,000  Level Fort Worth Center
Wed 12:15:00 AM 32.2097 -93.3386 113° Southeast 508 585 35,000  Level Houston Center
Wed 12:16:00 AM 32.1544 -93.1847 113° Southeast 509 586 35,000  Level Houston Center
Wed 12:17:01 AM 32.1003 -93.0306 112° Southeast 509 586 35,000  Level Houston Center
Wed 12:18:01 AM 32.0478 -92.8847 113° Southeast 505 581 35,000  Level Houston Center
Wed 12:19:01 AM 31.9928 -92.7317 113° Southeast 507 583 35,000  Level Houston Center
Wed 12:20:02 AM 31.9033 -92.6125 131° Southeast 490 564 35,000  Level Houston Center
Wed 12:21:02 AM 31.8011 -92.5150 141° Southeast 478 550 35,000  Level Houston Center
Wed 12:22:02 AM 31.6772 -92.3969 141° Southeast 478 550 35,000  Level Houston Center
Wed 12:23:03 AM 31.5717 -92.2986 142° Southeast 482 555 35,000  Level Houston Center
Wed 12:24:03 AM 31.4675 -92.2008 141° Southeast 480 552 35,000  Level Houston Center
Wed 12:25:04 AM 31.3619 -92.1025 141° Southeast 482 555 35,000 -99 Level Houston Center
Wed 12:26:04 AM 31.2686 -92.0161 142° Southeast 480 552 34,800 -1,200 Descending Houston Center
Wed 12:27:04 AM 31.1628 -91.9169 141° Southeast 484 557 32,600 -2,281 Descending Houston Center
Wed 12:28:05 AM 31.0583 -91.8192 141° Southeast 481 554 30,200 -2,529 Descending Houston Center
Wed 12:29:05 AM 30.9525 -91.7228 142° Southeast 482 555 27,500 -2,550 Descending Houston Center
Wed 12:30:05 AM 30.8475 -91.6250 141° Southeast 483 556 25,100 -2,331 Descending Houston Center
Wed 12:31:06 AM 30.7472 -91.5331 142° Southeast 463 533 22,800 -2,231 Descending Houston Center
Wed 12:32:06 AM 30.6506 -91.4444 142° Southeast 450 518 20,600 -2,079 Descending Houston Center
Wed 12:32:47 AM 30.5758 -91.3789 143° Southeast 433 498 19,300 -1,729 Descending Houston Center
Wed 12:33:05 AM 30.5458 -91.3508 141° Southeast 429 494 18,900 -1,462 Descending Houston Center
Wed 12:34:05 AM 30.4519 -91.2667 142° Southeast 420 483 17,400 -1,934 Descending Houston Center
Wed 12:35:06 AM 30.3644 -91.1828 140° Southeast 412 474 15,000 -2,361 Descending Houston Center
Wed 12:36:07 AM 30.2792 -91.1033 141° Southeast 394 453 12,600 -1,826 Descending Houston Center
Wed 12:37:01 AM 30.2064 -91.0361 141° Southeast 358 412 11,500 -887 Descending Houston Center
Wed 12:38:02 AM 30.1381 -90.9733 142° Southeast 297 342 10,900 -1,140 Descending Houston Center
Wed 12:39:02 AM 30.1086 -90.8878 112° Southeast 301 346 9,200 -1,905 Descending Houston Center
Wed 12:40:08 AM 30.1031 -90.7864 94° East 298 343 6,900 -2,066 Descending Houston Center
Wed 12:41:04 AM 30.0956 -90.7008 96° East 266 306 5,000 -1,527 Descending Houston Center
Wed 12:41:58 AM 30.0814 -90.6414 105° East 213 245 4,100 -522 Descending Houston Center
Wed 12:42:59 AM 30.0647 -90.5697 105° East 210 242 4,000 -149 Descending Houston Center
Wed 12:43:59 AM 30.0525 -90.5125 104° East 180 207 3,800 -595 Descending Houston Center
Wed 12:45:00 AM 30.0386 -90.4603 107° East 170 196 2,800 -891 Descending Houston Center
Wed 12:46:07 AM 30.0244 -90.4008 105° East 174 200 1,900 -709 Descending Houston Center
Wed 12:47:07 AM 30.0147 -90.3603 105° East 119 137 1,300 -595 Descending Houston Center
Wed 12:48:08 AM 30.0075 -90.3269 104° East 109 125 700 -590 Descending Houston Center

Login

Don't have an account? Register now (free) for customized features, flight alerts, and more!